Latest Weather Observations for Hamilton

IDV60801

Issued at 8:02 pm EST Tuesday 28 April 2015 (issued every 30 minutes, with the page automatically refreshed every 10 minutes)

About weather observations | Map of weather stations | Latest weather observations for VIC | Other Formats
Station Details ID: 090173 Name: HAMILTON AIRPORT Lat: -37.65 Lon: 142.06 Height: 241.1 m
Data from the previous 72 hours. | See also: Recent months at Hamilton
Date/Time
EST
Temp
°C
App
Temp
°C
Dew
Point
Rel
Hum
%
Delta-T
°C
Wind Press
QNH
hPa
Press
MSL
hPa
Rain
since 9 am
mm
Dir
 
Spd
km/h
Gust
km/h
Spd
kts
Gust
kts
28/08:00pm 7.4 4.2 5.2 86 1.0 SE 11 13 6 7 1030.4 1030.3 0.0
28/07:30pm 7.7 4.5 5.3 85 1.1 SSE 11 15 6 8 1030.3 1030.2 0.0
28/07:00pm 8.5 5.1 5.8 83 1.2 SSE 13 19 7 10 1030.3 1030.2 0.0
28/06:30pm 9.0 5.2 5.7 80 1.5 SSE 15 19 8 10 1030.0 1029.9 0.0
28/06:00pm 9.7 5.5 5.9 77 1.8 SSE 17 20 9 11 1029.8 1029.7 0.0
28/05:30pm 11.0 6.5 6.0 71 2.4 SSE 19 22 10 12 1029.5 1029.3 0.0
28/05:00pm 12.4 7.7 5.3 62 3.3 SSE 19 24 10 13 1029.3 1029.1 0.0
28/04:30pm 12.4 7.8 5.6 63 3.2 SSE 19 24 10 13 1029.3 1029.1 0.0
28/04:00pm 12.5 8.8 6.5 67 2.9 S 15 19 8 10 1029.4 1029.2 0.0
28/03:30pm 11.8 7.4 6.5 70 2.5 SSE 19 24 10 13 1029.4 1029.2 0.0
28/03:00pm 12.7 8.7 6.7 67 2.9 S 17 22 9 12 1029.3 1029.1 0.0
28/02:30pm 11.8 6.9 6.7 71 2.5 SSE 22 30 12 16 1029.4 1029.2 0.0
28/02:00pm 12.7 8.3 6.7 67 2.9 SSE 19 24 10 13 1029.6 1029.4 0.0
28/01:30pm 13.1 9.2 6.9 66 3.0 SSE 17 22 9 12 1029.7 1029.5 0.0
28/01:00pm 12.3 7.4 7.0 70 2.6 SSE 22 28 12 15 1030.0 1029.9 0.0
28/12:30pm 13.0 8.5 6.1 63 3.3 SSE 19 26 10 14 1030.1 1030.0 0.0
28/12:00pm 13.6 8.7 3.9 52 4.4 SE 19 28 10 15 1030.3 1030.2 0.0
28/11:30am 12.7 8.9 5.8 63 3.3 S 15 24 8 13 1030.5 1030.4 0.0
28/11:00am 12.2 8.3 7.1 71 2.5 S 17 20 9 11 1030.6 1030.5 0.0
28/10:30am 11.6 8.4 6.7 72 2.4 S 13 17 7 9 1030.6 1030.5 0.0
28/10:00am 10.3 7.7 7.7 84 1.3 SSW 11 13 6 7 1030.4 1030.3 0.0
28/09:30am 9.6 7.6 8.8 95 0.4 SSW 9 11 5 6 1030.5 1030.4 0.0
28/09:00am 8.9 7.2 8.5 97 0.2 S 7 9 4 5 1030.4 1030.3 0.4
28/08:30am 8.4 6.8 8.0 97 0.2 SSW 6 7 3 4 1030.2 1030.1 0.4
28/08:00am 8.2 6.4 7.8 97 0.2 SSE 7 9 4 5 1029.8 1029.7 0.2
28/07:30am 7.8 5.1 7.4 97 0.2 SSE 11 15 6 8 1029.6 1029.4 0.2
28/07:09am 7.4 5.0 7.0 97 0.2 SSW 9 13 5 7 1029.5 1029.3 0.2
28/07:00am 7.3 4.9 6.9 97 0.2 SW 9 11 5 6 1029.4 1029.2 0.2
28/06:48am 7.1 4.6 6.7 97 0.2 SSW 9 11 5 6 1029.3 1029.1 0.2
28/06:30am 7.1 4.2 6.7 97 0.2 SSW 11 13 6 7 1029.2 1029.0 0.2
28/06:00am 7.2 4.4 6.8 97 0.2 SSW 11 15 6 8 1028.8 1028.6 0.2
28/05:30am 5.4 2.2 5.0 97 0.2 SW 11 13 6 7 1028.5 1028.3 0.2
28/05:00am 5.2 2.9 4.8 97 0.2 SW 6 7 3 4 1028.1 1028.0 0.2
28/04:30am 5.2 2.7 4.8 97 0.2 SW 7 9 4 5 1027.9 1027.8 0.2
28/04:04am 5.9 3.5 5.3 96 0.3 SW 7 9 4 5 1027.7 1027.6 0.2
28/04:02am 6.1 3.8 5.7 97 0.2 SW 7 7 4 4 1027.7 1027.6 0.2
28/04:00am 6.2 3.9 5.8 97 0.2 SW 7 7 4 4 1027.7 1027.6 0.2
28/03:30am 6.0 3.7 5.6 97 0.2 WSW 7 9 4 5 1027.6 1027.5 0.2
28/03:00am 6.0 3.6 5.4 96 0.3 SW 7 7 4 4 1027.7 1027.6 0.2
28/02:41am 5.7 2.9 5.1 96 0.3 SW 9 11 5 6 1027.7 1027.6 0.2
28/02:30am 6.5 4.2 5.9 96 0.3 SW 7 9 4 5 1027.6 1027.5 0.2
28/02:11am 6.7 4.5 6.1 96 0.3 SW 7 9 4 5 1027.6 1027.5 0.2
28/02:00am 6.4 4.1 5.8 96 0.3 SW 7 9 4 5 1027.6 1027.5 0.2
28/01:52am 6.6 4.3 5.9 95 0.3 SW 7 9 4 5 1027.6 1027.5 0.2
28/01:38am 7.1 4.9 6.4 95 0.3 SW 7 7 4 4 1027.6 1027.5 0.2
28/01:30am 7.4 5.3 6.7 95 0.3 SSW 7 7 4 4 1027.6 1027.5 0.2
28/01:00am 7.5 5.4 6.8 95 0.3 SSW 7 9 4 5 1027.6 1027.5 0.2
28/12:30am 8.1 5.8 7.3 95 0.4 SSW 9 17 5 9 1027.6 1027.5 0.2
28/12:00am 8.1 5.3 7.0 93 0.5 SSW 11 13 6 7 1027.6 1027.5 0.2
 
Date/Time
EST
Temp
°C
App
Temp
°C
Dew
Point
Rel
Hum
%
Delta-T
°C
Wind Press
QNH
hPa
Press
MSL
hPa
Rain
since 9 am
mm
Dir
 
Spd
km/h
Gust
km/h
Spd
kts
Gust
kts
27/11:30pm 9.0 6.9 8.1 94 0.4 SSW 9 11 5 6 1027.7 1027.6 0.2
27/11:00pm 8.9 6.0 8.0 94 0.4 SSW 13 13 7 7 1027.7 1027.6 0.2
27/10:30pm 8.9 6.4 8.0 94 0.4 SSW 11 13 6 7 1027.7 1027.6 0.2
27/10:00pm 8.7 6.1 7.8 94 0.4 SSW 11 13 6 7 1027.4 1027.3 0.2
27/09:30pm 8.0 5.2 6.9 93 0.5 SSW 11 13 6 7 1027.1 1027.0 0.2
27/09:00pm 9.2 6.7 8.0 92 0.6 SSW 11 13 6 7 1027.0 1026.9 0.2
27/08:30pm 9.3 6.4 8.1 92 0.6 S 13 17 7 9 1027.0 1026.9 0.2
27/08:00pm 9.5 7.4 8.1 91 0.7 S 9 11 5 6 1026.9 1026.8 0.2
27/07:30pm 9.5 7.3 7.8 89 0.8 SSW 9 13 5 7 1026.7 1026.6 0.2
27/07:00pm 10.0 7.4 7.8 86 1.1 SSW 11 15 6 8 1026.3 1026.2 0.2
27/06:30pm 9.8 6.7 7.4 85 1.2 SSW 13 17 7 9 1026.0 1025.8 0.2
27/06:00pm 10.7 7.0 7.9 83 1.4 S 17 26 9 14 1025.8 1025.6 0.2
27/05:30pm 10.8 7.2 8.2 84 1.3 SSW 17 22 9 12 1025.6 1025.4 0.2
27/05:00pm 11.8 7.8 8.1 78 1.8 SSW 19 22 10 12 1025.4 1025.2 0.2
27/04:30pm 12.0 7.7 7.7 75 2.1 SW 20 30 11 16 1025.2 1025.0 0.2
27/04:00pm 12.3 7.3 8.0 75 2.1 S 24 28 13 15 1025.0 1024.8 0.2
27/03:30pm 12.0 7.0 7.9 76 2.0 SSW 24 35 13 19 1024.9 1024.7 0.2
27/03:05pm 13.5 8.7 8.8 73 2.4 SSW 24 44 13 24 1024.6 1024.4 0.2
27/03:00pm 14.2 10.2 8.4 68 2.9 SSW 19 26 10 14 1024.6 1024.4 0.2
27/02:30pm 12.3 8.1 8.2 76 2.0 S 20 24 11 13 1024.6 1024.4 0.2
27/02:00pm 13.8 9.3 6.9 63 3.4 SW 20 26 11 14 1024.4 1024.2 0.2
27/01:30pm 13.7 9.5 8.3 70 2.7 SSW 20 28 11 15 1024.5 1024.3 0.2
27/01:00pm 12.6 7.9 7.9 73 2.3 SW 22 28 12 15 1024.7 1024.5 0.2
27/12:30pm 12.6 8.0 8.1 74 2.2 SW 22 30 12 16 1024.8 1024.6 0.2
27/12:00pm 11.2 5.9 8.4 83 1.4 SW 26 35 14 19 1025.3 1025.1 0.2
27/11:30am 11.5 8.5 9.1 85 1.2 SW 15 20 8 11 1025.3 1025.1 0.2
27/11:00am 11.1 7.0 8.5 84 1.3 SW 20 24 11 13 1025.4 1025.2 0.2
27/10:30am 11.2 7.5 9.5 89 0.9 SW 19 24 10 13 1025.4 1025.2 0.2
27/10:22am 10.4 6.4 8.2 86 1.1 SW 19 24 10 13 1025.4 1025.2 0.2
27/10:00am 10.2 6.7 8.8 91 0.7 SW 17 20 9 11 1025.4 1025.2 0.2
27/09:30am 9.8 6.4 9.2 96 0.3 SW 17 22 9 12 1025.3 1025.1 0.2
27/09:25am 10.0 6.7 9.4 96 0.3 SW 17 22 9 12 1025.2 1025.0 0.2
27/09:09am 9.4 5.5 8.8 96 0.3 WSW 19 22 10 12 1025.1 1024.9 0.0
27/09:00am 9.6 6.6 9.1 97 0.2 WSW 15 20 8 11 1025.1 1024.9 0.8
27/08:30am 9.4 6.7 8.9 97 0.2 WSW 13 17 7 9 1025.0 1024.8 0.8
27/08:00am 8.6 5.7 8.2 97 0.2 WSW 13 17 7 9 1024.7 1024.5 0.8
27/07:30am 8.6 5.7 8.2 97 0.2 WSW 13 15 7 8 1024.4 1024.2 0.8
27/07:06am 8.4 5.5 8.0 97 0.2 WSW 13 19 7 10 1024.2 1024.0 0.8
27/07:00am 8.4 5.5 8.0 97 0.2 WSW 13 19 7 10 1024.2 1024.0 0.8
27/06:30am 8.2 5.2 7.8 97 0.2 W 13 17 7 9 1023.8 1023.7 0.8
27/06:28am 8.1 5.1 7.7 97 0.2 W 13 17 7 9 1023.8 1023.7 0.8
27/06:21am 8.0 5.0 7.6 97 0.2 W 13 19 7 10 1023.7 1023.6 0.8
27/06:16am 7.8 4.3 7.4 97 0.2 WSW 15 19 8 10 1023.7 1023.6 0.8
27/06:00am 8.3 5.3 7.9 97 0.2 WSW 13 20 7 11 1023.7 1023.6 0.8
27/05:59am 8.3 5.3 7.9 97 0.2 WSW 13 20 7 11 1023.7 1023.6 0.8
27/05:40am 8.1 4.7 7.7 97 0.2 W 15 24 8 13 1023.6 1023.5 0.6
27/05:30am 8.5 4.5 8.1 97 0.2 W 19 24 10 13 1023.6 1023.5 0.6
27/05:00am 8.5 5.2 8.1 97 0.2 W 15 19 8 10 1023.5 1023.4 0.6
27/04:30am 8.5 5.6 8.1 97 0.2 WSW 13 19 7 10 1023.2 1023.1 0.6
27/04:02am 8.7 5.5 8.3 97 0.2 W 15 19 8 10 1023.1 1023.0 0.6
27/04:00am 8.7 5.5 8.3 97 0.2 W 15 19 8 10 1023.1 1023.0 0.6
27/03:30am 8.6 5.3 8.2 97 0.2 WSW 15 17 8 9 1023.0 1022.9 0.6
27/03:21am 8.6 5.7 8.2 97 0.2 WSW 13 19 7 10 1023.1 1023.0 0.6
27/03:00am 8.8 5.6 8.4 97 0.2 WSW 15 19 8 10 1023.1 1023.0 0.6
27/02:54am 8.9 5.7 8.5 97 0.2 WSW 15 19 8 10 1023.2 1023.1 0.4
27/02:49am 8.8 5.6 8.4 97 0.2 WSW 15 20 8 11 1023.1 1023.0 0.4
27/02:33am 8.8 5.6 8.4 97 0.2 WSW 15 19 8 10 1023.2 1023.1 0.4
27/02:30am 8.8 5.6 8.4 97 0.2 WSW 15 19 8 10 1023.2 1023.1 0.4
27/02:00am 8.8 5.2 8.4 97 0.2 WSW 17 20 9 11 1023.2 1023.1 0.4
27/01:56am 8.8 5.6 8.4 97 0.2 WSW 15 20 8 11 1023.2 1023.1 0.4
27/01:30am 8.5 6.0 8.1 97 0.2 W 11 17 6 9 1023.2 1023.1 0.2
27/01:00am 8.4 5.5 8.0 97 0.2 W 13 15 7 8 1023.1 1023.0 0.2
27/12:31am 7.9 5.6 7.3 96 0.3 WSW 9 11 5 6 1023.4 1023.3 0.2
27/12:30am 7.9 5.6 7.3 96 0.3 WSW 9 11 5 6 1023.4 1023.3 0.2
27/12:28am 8.0 5.7 7.4 96 0.3 W 9 11 5 6 1023.4 1023.3 0.2
27/12:24am 8.0 6.1 7.4 96 0.3 W 7 11 4 6 1023.4 1023.3 0.2
27/12:00am 8.0 6.1 7.4 96 0.3 W 7 9 4 5 1023.3 1023.2 0.2
 
Date/Time
EST
Temp
°C
App
Temp
°C
Dew
Point
Rel
Hum
%
Delta-T
°C
Wind Press
QNH
hPa
Press
MSL
hPa
Rain
since 9 am
mm
Dir
 
Spd
km/h
Gust
km/h
Spd
kts
Gust
kts
26/11:57pm 7.8 5.4 7.2 96 0.3 W 9 9 5 5 1023.3 1023.2 0.2
26/11:30pm 8.2 5.6 7.6 96 0.3 W 11 15 6 8 1023.4 1023.3 0.2
26/11:25pm 8.2 5.6 7.6 96 0.3 W 11 15 6 8 1023.4 1023.3 0.2
26/11:12pm 7.7 4.9 7.1 96 0.3 W 11 15 6 8 1023.4 1023.3 0.2
26/11:00pm 7.1 4.6 6.4 95 0.3 WNW 9 13 5 7 1023.3 1023.2 0.2
26/10:30pm 8.2 5.9 7.6 96 0.3 WNW 9 13 5 7 1023.5 1023.4 0.2
26/10:00pm 8.1 5.8 7.3 95 0.4 W 9 11 5 6 1023.6 1023.5 0.2
26/09:50pm 8.3 5.6 7.5 95 0.4 W 11 13 6 7 1023.6 1023.5 0.2
26/09:30pm 8.4 5.4 7.5 94 0.4 WSW 13 17 7 9 1023.5 1023.4 0.2
26/09:07pm 9.1 5.5 8.2 94 0.4 WSW 17 20 9 11 1023.4 1023.3 0.2
26/09:00pm 9.1 4.9 8.2 94 0.4 WSW 20 24 11 13 1023.4 1023.3 0.2
26/08:55pm 9.2 5.0 8.1 93 0.5 WSW 20 28 11 15 1023.4 1023.3 0.2
26/08:37pm 9.6 6.6 7.9 89 0.8 WSW 13 22 7 12 1023.4 1023.3 0.0
26/08:30pm 9.8 7.2 7.6 86 1.1 W 11 15 6 8 1023.3 1023.2 0.0
26/08:00pm 9.7 6.5 7.0 83 1.3 W 13 15 7 8 1023.0 1022.9 0.0
26/07:30pm 10.1 7.3 6.8 80 1.6 W 11 15 6 8 1022.9 1022.8 0.0
26/07:00pm 9.8 6.5 6.5 80 1.6 WSW 13 15 7 8 1022.8 1022.7 0.0
26/06:30pm 10.5 6.4 6.3 75 2.0 SW 17 20 9 11 1022.6 1022.4 0.0
26/06:00pm 10.6 6.6 6.6 76 1.9 WSW 17 20 9 11 1022.5 1022.3 0.0
26/05:30pm 11.0 6.0 6.6 74 2.1 WSW 22 30 12 16 1022.2 1022.0 0.0
26/05:00pm 11.6 6.8 5.7 67 2.8 SW 20 26 11 14 1022.1 1021.9 0.0
26/04:30pm 11.8 7.0 5.7 66 2.9 SW 20 28 11 15 1021.9 1021.7 0.0
26/04:00pm 11.8 6.6 5.4 65 3.0 SSW 22 30 12 16 1021.8 1021.6 0.0
26/03:30pm 12.0 6.5 5.9 66 2.9 SW 24 32 13 17 1021.6 1021.4 0.0
26/03:00pm 12.0 7.1 5.0 62 3.2 SSW 20 32 11 17 1021.5 1021.3 0.0
26/02:30pm 12.3 6.7 5.5 63 3.2 SW 24 32 13 17 1021.3 1021.1 0.0
26/02:00pm 11.9 5.4 4.9 62 3.2 SW 28 37 15 20 1021.3 1021.1 0.0
26/01:30pm 11.7 5.4 5.8 67 2.8 SW 28 33 15 18 1021.4 1021.2 0.0
26/01:00pm 11.9 6.2 6.8 71 2.5 SW 26 33 14 18 1021.3 1021.1 0.0
26/12:30pm 11.3 5.2 6.4 72 2.3 SW 28 35 15 19 1021.4 1021.2 0.0
26/12:00pm 11.3 4.9 6.8 74 2.2 SW 30 37 16 20 1021.6 1021.4 0.0
26/11:30am 11.3 5.4 7.4 77 1.9 SW 28 37 15 20 1021.6 1021.4 0.0
26/11:07am 11.1 4.8 7.6 79 1.7 SSW 30 39 16 21 1021.6 1021.4 0.0
26/11:00am 11.5 7.0 8.7 83 1.4 SSW 22 28 12 15 1021.6 1021.4 0.0
26/10:47am 11.0 5.4 8.6 85 1.2 SSW 28 41 15 22 1021.6 1021.4 0.0
26/10:30am 10.6 5.3 8.5 87 1.0 SSW 26 33 14 18 1021.6 1021.4 0.0
26/10:19am 10.6 5.9 9.4 92 0.6 SSW 24 32 13 17 1021.6 1021.4 0.0
26/10:14am 10.2 5.4 8.8 91 0.7 SSW 24 33 13 18 1021.6 1021.4 0.0
26/10:00am 9.6 4.3 8.5 93 0.5 SSW 26 35 14 19 1021.6 1021.4 0.0
26/09:57am 9.6 4.7 8.5 93 0.5 SSW 24 35 13 19 1021.6 1021.4 0.0
26/09:30am 9.3 4.3 8.2 93 0.5 SW 24 32 13 17 1021.5 1021.3 0.0
26/09:00am 9.5 6.0 8.9 96 0.3 SSW 17 20 9 11 1021.3 1021.1 3.8
26/08:30am 8.9 5.7 8.3 96 0.3 SSW 15 19 8 10 1021.0 1020.8 3.8
26/08:00am 8.4 5.5 8.0 97 0.2 SW 13 17 7 9 1020.7 1020.5 3.8
26/07:37am 8.1 4.7 7.5 96 0.3 SW 15 19 8 10 1020.3 1020.1 3.8
26/07:30am 8.0 4.5 7.4 96 0.3 SW 15 20 8 11 1020.2 1020.0 3.8
26/07:18am 7.9 4.4 7.3 96 0.3 SW 15 20 8 11 1020.0 1019.8 3.6
26/07:06am 7.9 4.4 7.3 96 0.3 SW 15 20 8 11 1019.9 1019.7 3.6
26/07:00am 7.9 4.4 7.3 96 0.3 SW 15 20 8 11 1019.8 1019.6 3.6
26/06:47am 7.8 4.3 7.2 96 0.3 SW 15 19 8 10 1019.7 1019.5 3.6
26/06:30am 7.6 4.4 7.0 96 0.3 SW 13 17 7 9 1019.6 1019.4 3.6
26/06:21am 7.4 4.2 6.8 96 0.3 SW 13 17 7 9 1019.4 1019.3 3.6
26/06:10am 7.6 4.4 6.9 95 0.3 SW 13 19 7 10 1019.4 1019.3 3.6
26/06:00am 7.7 4.5 7.0 95 0.3 SW 13 19 7 10 1019.3 1019.2 3.4
26/05:57am 7.7 4.5 7.0 95 0.3 SW 13 19 7 10 1019.3 1019.2 3.4
26/05:30am 7.5 4.3 6.9 96 0.3 SW 13 17 7 9 1019.2 1019.1 3.4
26/05:00am 7.3 4.0 6.6 95 0.3 SW 13 17 7 9 1019.0 1018.8 3.4
26/04:30am 7.8 3.9 7.1 95 0.3 SW 17 22 9 12 1018.8 1018.6 3.4
26/04:00am 7.2 3.9 6.5 95 0.3 SSW 13 15 7 8 1018.7 1018.5 3.4
26/03:30am 7.3 3.3 6.6 95 0.3 SW 17 20 9 11 1018.3 1018.1 3.4
26/03:00am 7.3 3.7 6.6 95 0.3 SW 15 19 8 10 1018.4 1018.2 3.4
26/02:30am 7.8 3.9 7.2 96 0.3 SSW 17 20 9 11 1018.2 1018.0 3.4
26/02:23am 7.8 4.3 7.2 96 0.3 SSW 15 19 8 10 1018.2 1018.0 3.4
26/02:00am 8.4 4.7 7.8 96 0.3 SSW 17 22 9 12 1018.2 1018.0 3.4
26/01:30am 8.2 4.4 7.4 95 0.4 SSW 17 20 9 11 1018.1 1017.9 3.4
26/01:03am 8.2 4.8 7.6 96 0.3 SSW 15 19 8 10 1018.0 1017.8 3.4
26/01:00am 8.2 4.8 7.6 96 0.3 SSW 15 20 8 11 1017.9 1017.7 3.4
26/12:35am 8.4 4.6 7.6 95 0.4 SSW 17 22 9 12 1017.9 1017.7 3.2
26/12:30am 8.3 4.5 7.5 95 0.4 SSW 17 22 9 12 1017.9 1017.7 3.2
26/12:08am 8.0 4.5 7.1 94 0.4 SSW 15 19 8 10 1017.7 1017.5 3.2
26/12:00am 8.1 3.6 7.0 93 0.5 SSW 20 32 11 17 1017.6 1017.4 3.2
 
Date/Time
EST
Temp
°C
App
Temp
°C
Dew
Point
Rel
Hum
%
Delta-T
°C
Wind Press
QNH
hPa
Press
MSL
hPa
Rain
since 9 am
mm
Dir
 
Spd
km/h
Gust
km/h
Spd
kts
Gust
kts
25/11:51pm 8.3 4.5 7.4 94 0.4 SSW 17 26 9 14 1017.7 1017.5 3.2
25/11:30pm 7.8 3.8 6.7 93 0.5 SSW 17 19 9 10 1017.7 1017.5 3.0
25/11:00pm 8.8 4.4 7.6 92 0.6 SSW 20 28 11 15 1017.7 1017.5 3.0
25/10:30pm 9.0 5.7 7.9 93 0.5 SW 15 19 8 10 1017.6 1017.4 3.0
25/10:00pm 9.1 5.8 8.0 93 0.5 SW 15 17 8 9 1017.4 1017.2 3.0
25/09:30pm 9.2 6.0 8.3 94 0.4 SSW 15 19 8 10 1017.3 1017.1 3.0
25/09:24pm 9.2 6.0 8.3 94 0.4 SSW 15 19 8 10 1017.2 1017.0 3.0
25/09:00pm 9.6 6.5 8.8 95 0.4 SSW 15 20 8 11 1017.1 1016.9 3.0
25/08:39pm 9.6 6.1 8.7 94 0.4 SSW 17 19 9 10 1016.9 1016.7 2.8
25/08:30pm 9.6 6.0 8.5 93 0.5 S 17 22 9 12 1016.8 1016.6 2.8

Other Formats:

Comma delimited format used in spreadsheet applications
http://www.bom.gov.au/fwo/IDV60801/IDV60801.94829.axf

JavaScript Object Notation format (JSON) in row-major order
http://www.bom.gov.au/fwo/IDV60801/IDV60801.94829.json